createdAt,value
2016-03-21T00:00:06.411Z,6.54
2016-03-21T00:01:06.428Z,6.54
2016-03-21T00:02:06.463Z,6.48
2016-03-21T00:03:06.466Z,6.49
2016-03-21T00:04:06.484Z,6.56
2016-03-21T00:05:06.486Z,6.51
2016-03-21T00:06:06.504Z,6.51
2016-03-21T00:07:06.523Z,6.48
2016-03-21T00:08:06.541Z,6.48
2016-03-21T00:09:06.544Z,6.48
2016-03-21T00:10:06.594Z,6.49
2016-03-21T00:11:06.612Z,6.46
2016-03-21T00:12:06.615Z,6.41
2016-03-21T00:13:06.618Z,6.41
2016-03-21T00:14:06.620Z,6.52
2016-03-21T00:15:06.638Z,6.51
2016-03-21T00:16:06.641Z,6.46
2016-03-21T00:17:06.659Z,6.45
2016-03-21T00:18:06.662Z,6.51
2016-03-21T00:19:06.680Z,6.49
2016-03-21T00:20:06.699Z,6.56
2016-03-21T00:21:06.702Z,6.52
2016-03-21T00:22:06.720Z,6.51
2016-03-21T00:23:06.723Z,6.54
2016-03-21T00:24:06.756Z,6.59
2016-03-21T00:25:06.759Z,6.48
2016-03-21T00:26:06.792Z,6.46
2016-03-21T00:27:06.781Z,6.62
2016-03-21T00:28:06.814Z,6.48
2016-03-21T00:29:06.832Z,6.59
2016-03-21T00:30:06.694Z,6.57
2016-03-21T00:31:06.853Z,6.54
2016-03-21T00:32:06.872Z,6.57
2016-03-21T00:33:06.875Z,6.49
2016-03-21T00:34:06.908Z,6.52
2016-03-21T00:35:06.927Z,6.54
2016-03-21T00:36:06.929Z,6.48
2016-03-21T00:37:06.916Z,6.51
2016-03-21T00:38:06.950Z,6.57
2016-03-21T00:39:06.984Z,6.48
2016-03-21T00:40:06.987Z,6.46
2016-03-21T00:41:06.989Z,6.54
2016-03-21T00:42:07.008Z,6.54
2016-03-21T00:43:07.010Z,6.48
2016-03-21T00:44:07.044Z,6.62
2016-03-21T00:45:06.907Z,6.52
2016-03-21T00:46:07.081Z,6.52
2016-03-21T00:47:07.099Z,6.54
2016-03-21T00:48:07.102Z,6.48
2016-03-21T00:49:07.121Z,6.44
2016-03-21T00:50:07.123Z,6.49
2016-03-21T00:51:07.141Z,6.51
2016-03-21T00:52:07.143Z,6.48
2016-03-21T00:53:07.162Z,6.59
2016-03-21T00:54:07.024Z,6.49
2016-03-21T00:55:07.184Z,6.48
2016-03-21T00:56:07.234Z,6.6
2016-03-21T00:57:07.220Z,6.51
2016-03-21T00:58:07.254Z,6.52
2016-03-21T00:59:07.242Z,6.44
2016-03-21T01:00:07.290Z,6.54
2016-03-21T01:01:07.278Z,6.39
2016-03-21T01:02:07.295Z,6.42
2016-03-21T01:03:07.314Z,6.51
2016-03-21T01:04:07.317Z,6.46
2016-03-21T01:05:07.336Z,6.49
2016-03-21T01:06:07.353Z,6.52
2016-03-21T01:07:07.356Z,6.54
2016-03-21T01:08:07.391Z,6.48
2016-03-21T01:09:07.393Z,6.49
2016-03-21T01:10:07.411Z,6.49
2016-03-21T01:11:07.430Z,6.49
2016-03-21T01:12:07.447Z,6.51
2016-03-21T01:13:07.466Z,6.48
2016-03-21T01:14:07.453Z,6.52
2016-03-21T01:15:07.487Z,6.45
2016-03-21T01:16:07.505Z,6.51
2016-03-21T01:17:07.508Z,6.46
2016-03-21T01:18:07.543Z,6.49
2016-03-21T01:19:07.529Z,6.51
2016-03-21T01:20:07.548Z,6.41
2016-03-21T01:21:07.566Z,6.41
2016-03-21T01:22:07.600Z,6.46
2016-03-21T01:23:07.602Z,6.44
2016-03-21T01:24:07.636Z,6.42
2016-03-21T01:25:07.608Z,6.45
2016-03-21T01:26:07.642Z,6.39
2016-03-21T01:27:07.660Z,6.51
2016-03-21T01:28:07.663Z,6.52
2016-03-21T01:29:07.681Z,6.38
2016-03-21T01:30:07.700Z,6.46
2016-03-21T01:31:07.718Z,6.52
2016-03-21T01:32:07.721Z,6.44
2016-03-21T01:33:07.754Z,6.48
2016-03-21T01:34:07.757Z,6.45
2016-03-21T01:35:07.620Z,6.49
2016-03-21T01:36:07.794Z,6.56
2016-03-21T01:37:07.640Z,6.45
2016-03-21T01:38:07.815Z,6.48
2016-03-21T01:39:07.817Z,6.51
2016-03-21T01:40:07.836Z,6.49
2016-03-21T01:41:07.839Z,6.48
2016-03-21T01:42:07.872Z,6.52
2016-03-21T01:43:07.860Z,6.45
2016-03-21T01:44:07.878Z,6.49
2016-03-21T01:45:07.927Z,6.52
2016-03-21T01:46:07.914Z,6.42
2016-03-21T01:47:07.949Z,6.56
2016-03-21T01:48:07.966Z,6.52
2016-03-21T01:49:07.969Z,6.45
2016-03-21T01:50:07.988Z,6.42
2016-03-21T01:51:07.991Z,6.45
2016-03-21T01:52:07.994Z,6.42
2016-03-21T01:53:08.028Z,6.45
2016-03-21T01:54:08.030Z,6.42
2016-03-21T01:55:08.033Z,6.45
2016-03-21T01:56:08.067Z,6.52
2016-03-21T01:57:08.085Z,6.49
2016-03-21T01:58:08.088Z,6.44
2016-03-21T01:59:08.107Z,6.54
2016-03-21T02:00:08.140Z,6.52
2016-03-21T02:01:08.142Z,6.44
2016-03-21T02:02:07.990Z,6.44
2016-03-21T02:03:08.007Z,6.45
2016-03-21T02:04:08.182Z,6.44
2016-03-21T02:05:08.215Z,6.45
2016-03-21T02:06:08.203Z,6.44
2016-03-21T02:07:08.206Z,6.52
2016-03-21T02:08:08.223Z,6.49
2016-03-21T02:09:08.243Z,6.42
2016-03-21T02:10:08.276Z,6.49
2016-03-21T02:11:08.278Z,6.48
2016-03-21T02:12:08.281Z,6.48
2016-03-21T02:13:08.300Z,6.49
2016-03-21T02:14:08.303Z,6.46
2016-03-21T02:15:08.353Z,6.49
2016-03-21T02:16:08.325Z,6.49
2016-03-21T02:17:08.342Z,6.39
2016-03-21T02:18:08.375Z,6.42
2016-03-21T02:19:08.379Z,6.41
2016-03-21T02:20:08.428Z,6.35
2016-03-21T02:21:08.416Z,6.33
2016-03-21T02:22:08.433Z,6.38
2016-03-21T02:23:08.436Z,6.42
2016-03-21T02:24:08.455Z,6.42
2016-03-21T02:25:08.473Z,6.38
2016-03-21T02:26:08.476Z,6.38
2016-03-21T02:27:08.510Z,6.39
2016-03-21T02:28:08.496Z,6.39
2016-03-21T02:29:08.530Z,6.35
2016-03-21T02:30:08.532Z,6.39
2016-03-21T02:31:08.568Z,6.38
2016-03-21T02:32:08.554Z,6.42
2016-03-21T02:33:08.603Z,6.36
2016-03-21T02:34:08.606Z,6.31
2016-03-21T02:35:08.687Z,6.3
2016-03-21T02:36:08.643Z,6.39
2016-03-21T02:37:08.662Z,6.26
2016-03-21T02:38:08.680Z,6.27
2016-03-21T02:39:08.667Z,6.27
2016-03-21T02:40:08.684Z,6.26
2016-03-21T02:41:08.704Z,6.27
2016-03-21T02:42:08.722Z,6.27
2016-03-21T02:43:08.725Z,6.33
2016-03-21T02:44:08.742Z,6.3
2016-03-21T02:45:08.761Z,6.26
2016-03-21T02:46:08.764Z,6.24
2016-03-21T02:47:08.782Z,6.27
2016-03-21T02:48:08.801Z,6.28
2016-03-21T02:49:08.819Z,6.27
2016-03-21T02:50:08.697Z,6.28
2016-03-21T02:51:08.839Z,6.28
2016-03-21T02:52:08.842Z,6.2
2016-03-21T02:53:08.861Z,6.28
2016-03-21T02:54:08.879Z,6.24
2016-03-21T02:55:08.882Z,6.27
2016-03-21T02:56:08.899Z,6.2
2016-03-21T02:57:08.919Z,6.24
2016-03-21T02:58:08.952Z,6.19
2016-03-21T02:59:08.940Z,6.24
2016-03-21T03:00:08.958Z,6.24
2016-03-21T03:01:08.976Z,6.27
2016-03-21T03:02:08.979Z,6.22
2016-03-21T03:03:09.013Z,6.31
2016-03-21T03:04:09.000Z,6.24
2016-03-21T03:05:09.065Z,6.24
2016-03-21T03:06:09.051Z,6.2
2016-03-21T03:07:09.060Z,6.24
2016-03-21T03:08:09.072Z,6.24
2016-03-21T03:09:09.090Z,6.26
2016-03-21T03:10:09.109Z,6.24
2016-03-21T03:11:09.127Z,6.22
2016-03-21T03:12:09.145Z,6.27
2016-03-21T03:13:09.147Z,6.24
2016-03-21T03:14:09.150Z,6.19
2016-03-21T03:15:09.169Z,6.17
2016-03-21T03:16:09.188Z,6.17
2016-03-21T03:17:09.205Z,6.26
2016-03-21T03:18:09.207Z,6.17
2016-03-21T03:19:09.227Z,6.3
2016-03-21T03:20:09.213Z,6.27
2016-03-21T03:21:09.248Z,6.19
2016-03-21T03:22:09.282Z,6.22
2016-03-21T03:23:09.284Z,6.17
2016-03-21T03:24:09.318Z,6.2
2016-03-21T03:25:09.320Z,6.26
2016-03-21T03:26:09.324Z,6.26
2016-03-21T03:27:09.357Z,6.2
2016-03-21T03:28:09.375Z,6.3
2016-03-21T03:29:09.362Z,6.3
2016-03-21T03:30:09.397Z,6.24
2016-03-21T03:31:09.400Z,6.08
2016-03-21T03:32:09.418Z,6.11
2016-03-21T03:33:09.421Z,6.14
2016-03-21T03:34:09.423Z,6.09
2016-03-21T03:35:09.504Z,6.14
2016-03-21T03:36:09.475Z,6.26
2016-03-21T03:37:09.478Z,6.12
2016-03-21T03:38:09.497Z,6.14
2016-03-21T03:39:09.499Z,6.04
2016-03-21T03:40:09.502Z,6.07
2016-03-21T03:41:09.519Z,6.17
2016-03-21T03:42:09.539Z,6.12
2016-03-21T03:43:09.541Z,6.2
2016-03-21T03:44:09.560Z,6.14
2016-03-21T03:45:09.578Z,6.16
2016-03-21T03:46:09.611Z,6.01
2016-03-21T03:47:09.614Z,6.07
2016-03-21T03:48:09.633Z,6.01
2016-03-21T03:49:09.652Z,6.08
2016-03-21T03:50:09.654Z,6.04
2016-03-21T03:51:09.671Z,6.14
2016-03-21T03:52:09.690Z,6.07
2016-03-21T03:53:09.709Z,6.02
2016-03-21T03:54:09.711Z,6.01
2016-03-21T03:55:09.730Z,6.01
2016-03-21T03:56:09.732Z,6.01
2016-03-21T03:57:09.735Z,5.99
2016-03-21T03:58:09.753Z,5.98
2016-03-21T03:59:09.787Z,5.94
2016-03-21T04:00:09.774Z,6.04
2016-03-21T04:01:09.808Z,5.98
2016-03-21T04:02:09.826Z,5.94
2016-03-21T04:03:09.829Z,5.99
2016-03-21T04:04:09.864Z,6.04
2016-03-21T04:05:09.881Z,5.84
2016-03-21T04:06:09.884Z,5.87
2016-03-21T04:07:09.887Z,5.9
2016-03-21T04:08:09.905Z,5.84
2016-03-21T04:09:09.939Z,5.89
2016-03-21T04:10:09.925Z,5.89
2016-03-21T04:11:09.945Z,5.9
2016-03-21T04:12:09.947Z,5.97
2016-03-21T04:13:09.966Z,5.94
2016-03-21T04:14:09.983Z,5.94
2016-03-21T04:15:10.002Z,5.91
2016-03-21T04:16:10.021Z,5.99
2016-03-21T04:17:10.023Z,5.98
2016-03-21T04:18:10.042Z,6.01
2016-03-21T04:19:10.060Z,6.01
2016-03-21T04:20:10.093Z,6.02
2016-03-21T04:21:10.080Z,5.98
2016-03-21T04:22:10.099Z,5.94
2016-03-21T04:23:10.118Z,5.97
2016-03-21T04:24:10.135Z,5.99
2016-03-21T04:25:10.154Z,6.02
2016-03-21T04:26:10.173Z,5.97
2016-03-21T04:27:10.175Z,6.07
2016-03-21T04:28:10.193Z,6.04
2016-03-21T04:29:10.227Z,6.02
2016-03-21T04:30:10.214Z,5.97
2016-03-21T04:31:10.232Z,5.9
2016-03-21T04:32:10.250Z,5.86
2016-03-21T04:33:10.254Z,5.91
2016-03-21T04:34:10.272Z,5.87
2016-03-21T04:35:10.290Z,5.9
2016-03-21T04:36:10.292Z,5.93
2016-03-21T04:37:10.311Z,5.89
2016-03-21T04:38:10.314Z,5.87
2016-03-21T04:39:10.363Z,5.89
2016-03-21T04:40:10.351Z,5.93
2016-03-21T04:41:10.369Z,5.97
2016-03-21T04:42:10.372Z,5.93
2016-03-21T04:43:10.389Z,5.89
2016-03-21T04:44:10.408Z,5.89
2016-03-21T04:45:10.474Z,5.91
2016-03-21T04:46:10.429Z,5.86
2016-03-21T04:47:10.447Z,5.87
2016-03-21T04:48:10.450Z,5.87
2016-03-21T04:49:10.469Z,5.98
2016-03-21T04:50:10.487Z,5.94
2016-03-21T04:51:10.490Z,5.99
2016-03-21T04:52:10.524Z,5.9
2016-03-21T04:53:10.526Z,6.04
2016-03-21T04:54:10.576Z,5.97
2016-03-21T04:55:10.546Z,5.98
2016-03-21T04:56:10.596Z,5.97
2016-03-21T04:57:10.584Z,6.02
2016-03-21T04:58:10.601Z,6.07
2016-03-21T04:59:10.604Z,6.07
2016-03-21T05:00:10.623Z,6.05
2016-03-21T05:01:10.642Z,5.97
2016-03-21T05:02:10.659Z,5.94
2016-03-21T05:03:10.679Z,5.97
2016-03-21T05:04:10.681Z,5.94
2016-03-21T05:05:10.698Z,6.04
2016-03-21T05:06:10.718Z,6.01
2016-03-21T05:07:10.736Z,5.91
2016-03-21T05:08:10.739Z,5.98
2016-03-21T05:09:10.772Z,5.97
2016-03-21T05:10:10.775Z,5.86
2016-03-21T05:11:10.778Z,6.02
2016-03-21T05:12:10.781Z,5.98
2016-03-21T05:13:10.814Z,6.04
2016-03-21T05:14:10.848Z,6.01
2016-03-21T05:15:10.835Z,5.87
2016-03-21T05:16:10.869Z,6.01
2016-03-21T05:17:10.871Z,5.9
2016-03-21T05:18:10.875Z,5.89
2016-03-21T05:19:10.893Z,5.94
2016-03-21T05:20:10.910Z,5.93
2016-03-21T05:21:10.913Z,5.9
2016-03-21T05:22:10.932Z,5.82
2016-03-21T05:23:10.951Z,5.84
2016-03-21T05:24:10.953Z,5.8
2016-03-21T05:25:10.972Z,5.8
2016-03-21T05:26:10.990Z,5.89
2016-03-21T05:27:11.007Z,5.82
2016-03-21T05:28:11.010Z,5.93
2016-03-21T05:29:11.013Z,5.84
2016-03-21T05:30:11.032Z,5.89
2016-03-21T05:31:11.050Z,5.79
2016-03-21T05:32:11.068Z,5.87
2016-03-21T05:33:11.118Z,5.87
2016-03-21T05:34:11.090Z,5.82
2016-03-21T05:35:11.139Z,5.9
2016-03-21T05:36:11.142Z,5.84
2016-03-21T05:37:11.129Z,5.84
2016-03-21T05:38:11.162Z,5.86
2016-03-21T05:39:11.181Z,5.89
2016-03-21T05:40:11.184Z,5.86
2016-03-21T05:41:11.217Z,5.86
2016-03-21T05:42:11.220Z,5.83
2016-03-21T05:43:11.238Z,5.83
2016-03-21T05:44:11.242Z,5.91
2016-03-21T05:45:11.260Z,5.89
2016-03-21T05:46:11.263Z,5.87
2016-03-21T05:47:11.280Z,5.9
2016-03-21T05:48:11.284Z,5.9
2016-03-21T05:49:11.302Z,5.86
2016-03-21T05:50:11.319Z,5.87
2016-03-21T05:51:11.323Z,5.8
2016-03-21T05:52:11.325Z,5.79
2016-03-21T05:53:11.360Z,5.82
2016-03-21T05:54:11.377Z,5.71
2016-03-21T05:55:11.396Z,5.83
2016-03-21T05:56:11.383Z,5.82
2016-03-21T05:57:11.432Z,5.93
2016-03-21T05:58:11.435Z,5.9
2016-03-21T05:59:11.454Z,5.93
2016-03-21T06:00:11.456Z,5.84
2016-03-21T06:01:11.474Z,5.79
2016-03-21T06:02:11.508Z,5.9
2016-03-21T06:03:11.496Z,5.9
2016-03-21T06:04:11.529Z,5.94
2016-03-21T06:05:11.532Z,5.99
2016-03-21T06:06:11.550Z,5.98
2016-03-21T06:07:11.537Z,6.05
2016-03-21T06:08:11.587Z,6.08
2016-03-21T06:09:11.589Z,6.07
2016-03-21T06:10:11.593Z,6.16
2016-03-21T06:11:11.626Z,6.12
2016-03-21T06:12:11.629Z,6.09
2016-03-21T06:13:11.616Z,6.12
2016-03-21T06:14:11.634Z,6.11
2016-03-21T06:15:11.669Z,6.11
2016-03-21T06:16:11.671Z,6.17
2016-03-21T06:17:11.689Z,6.14
2016-03-21T06:18:11.708Z,6.12
2016-03-21T06:19:11.710Z,6.16
2016-03-21T06:20:11.729Z,6.07
2016-03-21T06:21:11.747Z,6.26
2016-03-21T06:22:11.766Z,6.24
2016-03-21T06:23:11.643Z,6.31
2016-03-21T06:24:11.802Z,6.27
2016-03-21T06:25:11.805Z,6.22
2016-03-21T06:26:11.824Z,6.26
2016-03-21T06:27:11.841Z,6.2
2016-03-21T06:28:11.843Z,6.24
2016-03-21T06:29:11.863Z,6.33
2016-03-21T06:30:11.881Z,6.33
2016-03-21T06:31:11.899Z,6.26
2016-03-21T06:32:11.746Z,6.33
2016-03-21T06:33:11.920Z,6.27
2016-03-21T06:34:11.923Z,6.3
2016-03-21T06:35:11.956Z,6.41
2016-03-21T06:36:11.943Z,6.36
2016-03-21T06:37:11.962Z,6.42
2016-03-21T06:38:11.981Z,6.39
2016-03-21T06:39:11.983Z,6.36
2016-03-21T06:40:12.001Z,6.38
2016-03-21T06:41:12.020Z,6.31
2016-03-21T06:42:12.053Z,6.44
2016-03-21T06:43:12.056Z,6.42
2016-03-21T06:44:12.059Z,6.46
2016-03-21T06:45:12.092Z,6.51
2016-03-21T06:46:12.095Z,6.52
2016-03-21T06:47:12.114Z,6.48
2016-03-21T06:48:12.133Z,6.54
2016-03-21T06:49:12.150Z,6.52
2016-03-21T06:50:12.169Z,6.51
2016-03-21T06:51:12.172Z,6.45
2016-03-21T06:52:12.175Z,6.54
2016-03-21T06:53:12.177Z,6.48
2016-03-21T06:54:12.211Z,6.42
2016-03-21T06:55:12.214Z,6.46
2016-03-21T06:56:12.247Z,6.54
2016-03-21T06:57:12.093Z,6.45
2016-03-21T06:58:12.269Z,6.38
2016-03-21T06:59:12.287Z,6.46
2016-03-21T07:00:12.290Z,6.56
2016-03-21T07:01:12.292Z,6.51
2016-03-21T07:02:12.310Z,6.49
2016-03-21T07:03:12.345Z,6.48
2016-03-21T07:04:12.347Z,6.45
2016-03-21T07:05:12.351Z,6.45
2016-03-21T07:06:12.384Z,6.52
2016-03-21T07:07:12.394Z,6.48
2016-03-21T07:08:12.428Z,6.51
2016-03-21T07:09:12.446Z,6.51
2016-03-21T07:10:12.309Z,6.63
2016-03-21T07:11:12.467Z,6.6
2016-03-21T07:12:12.470Z,6.59
2016-03-21T07:13:12.489Z,6.66
2016-03-21T07:14:12.506Z,6.62
2016-03-21T07:15:12.509Z,6.66
2016-03-21T07:16:12.527Z,6.56
2016-03-21T07:17:12.515Z,6.62
2016-03-21T07:18:12.549Z,6.63
2016-03-21T07:19:12.552Z,6.69
2016-03-21T07:20:12.570Z,6.63
2016-03-21T07:21:12.588Z,6.51
2016-03-21T07:22:12.606Z,6.48
2016-03-21T07:23:12.608Z,6.59
2016-03-21T07:24:12.628Z,6.56
2016-03-21T07:25:12.646Z,6.44
2016-03-21T07:26:12.663Z,6.46
2016-03-21T07:27:12.682Z,6.54
2016-03-21T07:28:12.701Z,6.48
2016-03-21T07:29:12.704Z,6.51
2016-03-21T07:30:12.721Z,6.51
2016-03-21T07:31:12.725Z,6.54
2016-03-21T07:32:12.743Z,6.49
2016-03-21T07:33:12.760Z,6.45
2016-03-21T07:34:12.763Z,6.51
2016-03-21T07:35:12.798Z,6.48
2016-03-21T07:36:12.784Z,6.6
2016-03-21T07:37:12.818Z,6.48
2016-03-21T07:38:12.868Z,6.45
2016-03-21T07:39:12.887Z,6.45
2016-03-21T07:40:12.873Z,6.62
2016-03-21T07:41:12.876Z,6.67
2016-03-21T07:42:12.895Z,6.69
2016-03-21T07:43:12.912Z,6.66
2016-03-21T07:44:12.931Z,6.66
2016-03-21T07:45:12.926Z,6.69
2016-03-21T07:46:12.931Z,6.67
2016-03-21T07:47:12.934Z,6.75
2016-03-21T07:48:12.924Z,6.63
2016-03-21T07:49:12.928Z,6.7
2016-03-21T07:50:12.923Z,6.82
2016-03-21T07:51:12.967Z,6.81
2016-03-21T07:52:12.979Z,6.87
2016-03-21T07:53:12.978Z,6.97
2016-03-21T07:54:12.944Z,6.92
2016-03-21T07:55:12.990Z,7.07
2016-03-21T07:56:12.991Z,7.06
2016-03-21T07:57:13.023Z,7.25
2016-03-21T07:58:13.023Z,7.11
2016-03-21T07:59:13.024Z,7.29
2016-03-21T08:00:13.026Z,7.38
2016-03-21T08:01:13.060Z,7.48
2016-03-21T08:02:13.062Z,7.47
2016-03-21T08:03:13.079Z,7.4
2016-03-21T08:04:13.097Z,7.53
2016-03-21T08:05:13.114Z,7.53
2016-03-21T08:06:13.116Z,7.5
2016-03-21T08:07:13.136Z,7.57
2016-03-21T08:08:13.169Z,7.54
2016-03-21T08:09:13.172Z,7.47
2016-03-21T08:10:13.174Z,7.42
2016-03-21T08:11:13.177Z,7.35
2016-03-21T08:12:13.196Z,7.4
2016-03-21T08:13:13.229Z,7.33
2016-03-21T08:14:13.249Z,7.28
2016-03-21T08:15:13.251Z,7.28
2016-03-21T08:16:13.268Z,7.29
2016-03-21T08:17:13.287Z,7.29
2016-03-21T08:18:13.290Z,7.15
2016-03-21T08:19:13.152Z,7.14
2016-03-21T08:20:13.326Z,7.03
2016-03-21T08:21:13.329Z,7.07
2016-03-21T08:22:13.348Z,7.06
2016-03-21T08:23:13.366Z,7.06
2016-03-21T08:24:13.369Z,7.06
2016-03-21T08:25:13.403Z,7.07
2016-03-21T08:26:16.093Z,7.18
2016-03-21T08:27:13.439Z,7.13
2016-03-21T08:28:13.442Z,7.06
2016-03-21T08:29:13.475Z,7.06
2016-03-21T08:30:13.478Z,7.17
2016-03-21T08:31:13.512Z,7.15
2016-03-21T08:32:13.516Z,7.14
2016-03-21T08:33:13.502Z,7.17
2016-03-21T08:34:13.521Z,7.24
2016-03-21T08:35:13.539Z,7.2
2016-03-21T08:36:13.667Z,7.24
2016-03-21T08:37:13.575Z,7.24
2016-03-21T08:38:13.577Z,7.32
2016-03-21T08:39:13.597Z,7.29
2016-03-21T08:40:13.615Z,7.31
2016-03-21T08:41:13.618Z,7.42
2016-03-21T08:42:13.635Z,7.53
2016-03-21T08:43:13.670Z,7.56
2016-03-21T08:44:13.673Z,7.58
2016-03-21T08:45:13.690Z,7.63
2016-03-21T08:46:13.694Z,7.69
2016-03-21T08:47:13.727Z,7.9
2016-03-21T08:48:13.715Z,8
2016-03-21T08:49:13.732Z,7.85
2016-03-21T08:50:13.767Z,7.83
2016-03-21T08:51:13.832Z,7.94
2016-03-21T08:52:13.803Z,7.85
2016-03-21T08:53:13.806Z,7.93
2016-03-21T08:54:13.825Z,7.95
2016-03-21T08:55:13.827Z,7.95
2016-03-21T08:56:13.862Z,7.87
2016-03-21T08:57:13.911Z,7.83
2016-03-21T08:58:13.867Z,7.8
2016-03-21T08:59:13.931Z,7.69
2016-03-21T09:00:13.934Z,7.82
2016-03-21T09:01:13.937Z,7.83
2016-03-21T09:02:13.971Z,7.83
2016-03-21T09:03:13.974Z,7.66
2016-03-21T09:04:14.022Z,7.7
2016-03-21T09:05:14.010Z,7.69
2016-03-21T09:06:14.122Z,7.73
2016-03-21T09:07:14.047Z,7.73
2016-03-21T09:08:14.081Z,7.7
2016-03-21T09:09:14.068Z,7.8
2016-03-21T09:10:14.086Z,7.85
2016-03-21T09:11:14.105Z,7.91
2016-03-21T09:12:14.154Z,7.97
2016-03-21T09:13:14.125Z,7.98
2016-03-21T09:14:14.129Z,7.98
2016-03-21T09:15:14.137Z,7.94
2016-03-21T09:16:14.125Z,7.93
2016-03-21T09:17:14.142Z,8.1
2016-03-21T09:18:14.146Z,8.12
2016-03-21T09:19:14.180Z,8.12
2016-03-21T09:20:14.182Z,8.13
2016-03-21T09:21:14.310Z,8.26
2016-03-21T09:22:14.235Z,8.23
2016-03-21T09:23:14.237Z,8.31
2016-03-21T09:24:14.256Z,8.28
2016-03-21T09:25:14.274Z,8.36
2016-03-21T09:26:14.292Z,8.37
2016-03-21T09:27:14.294Z,8.48
2016-03-21T09:28:14.313Z,8.36
2016-03-21T09:29:14.332Z,8.37
2016-03-21T09:30:14.334Z,8.34
2016-03-21T09:31:14.352Z,8.28
2016-03-21T09:32:14.371Z,8.28
2016-03-21T09:33:14.404Z,8.2
2016-03-21T09:34:14.408Z,8.23
2016-03-21T09:35:14.410Z,8.12
2016-03-21T09:36:14.554Z,8.1
2016-03-21T09:37:14.462Z,8.08
2016-03-21T09:38:14.449Z,8.12
2016-03-21T09:39:14.484Z,8.16
2016-03-21T09:40:14.501Z,8.09
2016-03-21T09:41:14.489Z,8
2016-03-21T09:42:14.506Z,8.06
2016-03-21T09:43:14.541Z,8.15
2016-03-21T09:44:14.559Z,8.1
2016-03-21T09:45:14.562Z,8.1
2016-03-21T09:46:14.581Z,8.08
2016-03-21T09:47:14.630Z,8.01
2016-03-21T09:48:14.617Z,8.01
2016-03-21T09:49:14.667Z,7.91
2016-03-21T09:50:14.653Z,7.8
2016-03-21T09:51:14.719Z,7.83
2016-03-21T09:52:14.691Z,7.87
2016-03-21T09:53:14.678Z,7.75
2016-03-21T09:54:14.696Z,7.72
2016-03-21T09:55:14.730Z,7.7
2016-03-21T09:56:14.747Z,7.72
2016-03-21T09:57:14.735Z,7.72
2016-03-21T09:58:14.784Z,7.83
2016-03-21T09:59:14.788Z,7.79
2016-03-21T10:00:14.805Z,7.72
2016-03-21T10:01:14.807Z,7.73
2016-03-21T10:02:14.826Z,7.6
2016-03-21T10:03:14.845Z,7.61
2016-03-21T10:04:14.848Z,7.51
2016-03-21T10:05:14.850Z,7.51
2016-03-21T10:06:14.900Z,7.54
2016-03-21T10:07:14.888Z,7.51
2016-03-21T10:08:14.905Z,7.6
2016-03-21T10:09:14.925Z,7.58
2016-03-21T10:10:14.958Z,7.58
2016-03-21T10:11:14.946Z,7.7
2016-03-21T10:12:14.979Z,7.75
2016-03-21T10:13:14.982Z,7.79
2016-03-21T10:14:15.015Z,7.93
2016-03-21T10:15:15.003Z,7.85
2016-03-21T10:16:15.084Z,7.85
2016-03-21T10:17:15.102Z,7.98
2016-03-21T10:18:15.151Z,7.98
2016-03-21T10:19:15.139Z,8.03
2016-03-21T10:20:15.110Z,8.12
2016-03-21T10:21:15.238Z,8.09
2016-03-21T10:22:15.115Z,8.13
2016-03-21T10:23:15.118Z,8.15
2016-03-21T10:24:15.153Z,8.2
2016-03-21T10:25:15.156Z,8.33
2016-03-21T10:26:15.158Z,8.34
2016-03-21T10:27:15.176Z,8.36
2016-03-21T10:28:15.194Z,8.38
2016-03-21T10:29:15.212Z,8.49
2016-03-21T10:30:15.230Z,8.52
2016-03-21T10:31:15.249Z,8.49
2016-03-21T10:32:15.252Z,8.6
2016-03-21T10:33:15.285Z,8.49
2016-03-21T10:34:15.289Z,8.46
2016-03-21T10:35:15.307Z,8.45
2016-03-21T10:36:15.356Z,8.49
2016-03-21T10:37:15.344Z,8.55
2016-03-21T10:38:15.346Z,8.46
2016-03-21T10:39:15.364Z,8.58
2016-03-21T10:40:15.383Z,8.46
2016-03-21T10:41:15.402Z,8.46
2016-03-21T10:42:15.404Z,8.56
2016-03-21T10:43:15.421Z,8.48
2016-03-21T10:44:15.440Z,8.34
2016-03-21T10:45:15.459Z,8.31
2016-03-21T10:46:15.462Z,8.3
2016-03-21T10:47:15.480Z,8.23
2016-03-21T10:48:15.498Z,8.13
2016-03-21T10:49:15.516Z,8.15
2016-03-21T10:50:15.534Z,8.1
2016-03-21T10:51:15.538Z,8.12
2016-03-21T10:52:15.571Z,7.98
2016-03-21T10:53:15.589Z,7.83
2016-03-21T10:54:15.592Z,7.91
2016-03-21T10:55:15.595Z,7.83
2016-03-21T10:56:15.613Z,7.61
2016-03-21T10:57:15.492Z,7.57
2016-03-21T10:58:15.650Z,7.43
2016-03-21T10:59:15.668Z,7.38
2016-03-21T11:00:15.686Z,7.42
2016-03-21T11:01:15.673Z,7.42
2016-03-21T11:02:15.708Z,7.51
2016-03-21T11:03:15.710Z,7.56
2016-03-21T11:04:15.728Z,7.63
2016-03-21T11:05:15.731Z,7.7
2016-03-21T11:06:15.796Z,7.79
2016-03-21T11:07:15.775Z,7.88
2016-03-21T11:08:15.810Z,7.88
2016-03-21T11:09:15.813Z,7.91
2016-03-21T11:10:15.831Z,7.93
2016-03-21T11:11:15.819Z,8.01
2016-03-21T11:12:15.836Z,8.09
2016-03-21T11:13:15.870Z,8.1
2016-03-21T11:14:15.872Z,8.31
2016-03-21T11:15:15.875Z,8.36
2016-03-21T11:16:15.910Z,8.41
2016-03-21T11:17:15.927Z,8.51
2016-03-21T11:18:15.945Z,8.58
2016-03-21T11:19:15.965Z,8.46
2016-03-21T11:20:15.967Z,8.55
2016-03-21T11:21:15.985Z,8.73
2016-03-21T11:22:16.004Z,8.63
2016-03-21T11:23:16.021Z,8.58
2016-03-21T11:24:16.009Z,8.67
2016-03-21T11:25:16.043Z,8.69
2016-03-21T11:26:16.046Z,8.67
2016-03-21T11:27:16.079Z,8.63
2016-03-21T11:28:16.081Z,8.67
2016-03-21T11:29:16.117Z,8.71
2016-03-21T11:30:16.119Z,8.67
2016-03-21T11:31:16.400Z,8.64
2016-03-21T11:32:16.498Z,8.69
2016-03-21T11:33:16.016Z,8.67
2016-03-21T11:34:17.280Z,8.66
2016-03-21T11:35:17.854Z,8.66
2016-03-21T11:36:16.249Z,8.73
2016-03-21T11:37:16.235Z,8.85
2016-03-21T11:38:16.238Z,8.91
2016-03-21T11:39:16.225Z,8.99
2016-03-21T11:40:16.275Z,8.91
2016-03-21T11:41:16.277Z,9.03
2016-03-21T11:42:16.296Z,8.97
2016-03-21T11:43:16.314Z,8.94
2016-03-21T11:44:16.317Z,8.97
2016-03-21T11:45:16.475Z,8.92
2016-03-21T11:46:16.369Z,8.84
2016-03-21T11:47:16.372Z,8.85
2016-03-21T11:48:16.374Z,8.87
2016-03-21T11:49:16.408Z,8.97
2016-03-21T11:50:16.411Z,8.97
2016-03-21T11:51:16.429Z,9.06
2016-03-21T11:52:16.447Z,9.08
2016-03-21T11:53:16.435Z,9.14
2016-03-21T11:54:16.483Z,9.29
2016-03-21T11:55:16.486Z,9.28
2016-03-21T11:56:16.521Z,9.26
2016-03-21T11:57:16.524Z,9.29
2016-03-21T11:58:16.526Z,9.37
2016-03-21T11:59:16.544Z,9.41
2016-03-21T12:00:16.579Z,9.59
2016-03-21T12:01:16.768Z,9.68
2016-03-21T12:02:16.600Z,9.65
2016-03-21T12:03:16.602Z,9.65
2016-03-21T12:04:16.620Z,9.73
2016-03-21T12:05:16.670Z,9.73
2016-03-21T12:06:16.673Z,9.76
2016-03-21T12:07:16.694Z,9.86
2016-03-21T12:08:16.698Z,9.82
2016-03-21T12:09:16.731Z,9.69
2016-03-21T12:10:16.578Z,9.68
2016-03-21T12:11:15.986Z,9.76
2016-03-21T12:12:16.771Z,9.84
2016-03-21T12:13:16.774Z,9.99
2016-03-21T12:14:16.776Z,9.99
2016-03-21T12:15:16.810Z,10.07
2016-03-21T12:16:16.813Z,10.1
2016-03-21T12:17:16.863Z,9.97
2016-03-21T12:18:17.210Z,10.07
2016-03-21T12:19:16.868Z,10.12
2016-03-21T12:20:16.885Z,10.26
2016-03-21T12:21:16.921Z,10.35
2016-03-21T12:22:16.938Z,10.35
2016-03-21T12:23:16.940Z,10.42
2016-03-21T12:24:16.959Z,10.37
2016-03-21T12:25:16.962Z,10.19
2016-03-21T12:26:16.995Z,10.13
2016-03-21T12:27:17.015Z,10.16
2016-03-21T12:28:17.017Z,10.15
2016-03-21T12:29:17.051Z,10.07
2016-03-21T12:30:17.054Z,10.15
2016-03-21T12:31:17.072Z,10.09
2016-03-21T12:32:17.105Z,10.26
2016-03-21T12:33:17.092Z,10.42
2016-03-21T12:34:17.127Z,10.44
2016-03-21T12:35:17.130Z,10.69
2016-03-21T12:36:17.195Z,10.68
2016-03-21T12:37:17.151Z,10.81
2016-03-21T12:38:17.184Z,10.81
2016-03-21T12:39:17.234Z,10.89
2016-03-21T12:40:17.205Z,10.76
2016-03-21T12:41:17.239Z,10.6
2016-03-21T12:42:17.305Z,10.49
2016-03-21T12:43:17.276Z,10.42
2016-03-21T12:44:17.279Z,10.35
2016-03-21T12:45:17.313Z,10.44
2016-03-21T12:46:17.330Z,10.34
2016-03-21T12:47:17.349Z,10.26
2016-03-21T12:48:17.368Z,10.07
2016-03-21T12:49:17.354Z,9.95
2016-03-21T12:50:17.388Z,9.87
2016-03-21T12:51:17.406Z,9.91
2016-03-21T12:52:17.425Z,9.87
2016-03-21T12:53:17.443Z,9.86
2016-03-21T12:54:17.446Z,9.94
2016-03-21T12:55:17.480Z,9.83
2016-03-21T12:56:17.498Z,9.74
2016-03-21T12:57:17.501Z,9.56
2016-03-21T12:58:17.504Z,9.58
2016-03-21T12:59:17.537Z,9.51
2016-03-21T13:00:17.540Z,9.5
2016-03-21T13:01:17.575Z,9.5
2016-03-21T13:02:17.577Z,9.54
2016-03-21T13:03:17.612Z,9.55
2016-03-21T13:04:17.614Z,9.43
2016-03-21T13:05:17.631Z,9.34
2016-03-21T13:06:17.651Z,9.31
2016-03-21T13:07:17.663Z,9.22
2016-03-21T13:08:17.680Z,9.1
2016-03-21T13:09:17.700Z,9.16
2016-03-21T13:10:17.702Z,9.08
2016-03-21T13:11:17.721Z,9.03
2016-03-21T13:12:17.754Z,8.99
2016-03-21T13:13:17.773Z,8.85
2016-03-21T13:14:17.776Z,8.81
2016-03-21T13:15:17.778Z,8.74
2016-03-21T13:16:17.797Z,8.71
2016-03-21T13:17:17.815Z,8.76
2016-03-21T13:18:17.833Z,8.7
2016-03-21T13:19:17.851Z,8.73